sensor_id;sensor_type;location;lat;lon;timestamp;P1;durP1;ratioP1;P2;durP2;ratioP2
39956;SDS011;48483;44.640;7.494;2023-06-26T00:02:26;40.88;;;36.08;;
39956;SDS011;48483;44.640;7.494;2023-06-26T00:04:52;34.15;;;30.42;;
39956;SDS011;48483;44.640;7.494;2023-06-26T00:07:19;34.53;;;31.02;;
39956;SDS011;48483;44.640;7.494;2023-06-26T00:09:46;29.23;;;26.10;;
39956;SDS011;48483;44.640;7.494;2023-06-26T00:12:12;38.25;;;34.13;;
39956;SDS011;48483;44.640;7.494;2023-06-26T00:14:39;45.53;;;40.70;;
39956;SDS011;48483;44.640;7.494;2023-06-26T00:17:07;57.10;;;51.13;;
39956;SDS011;48483;44.640;7.494;2023-06-26T00:19:34;39.88;;;35.92;;
39956;SDS011;48483;44.640;7.494;2023-06-26T00:22:00;43.85;;;39.25;;
39956;SDS011;48483;44.640;7.494;2023-06-26T00:24:27;41.95;;;37.58;;
39956;SDS011;48483;44.640;7.494;2023-06-26T00:26:53;35.17;;;31.70;;
39956;SDS011;48483;44.640;7.494;2023-06-26T00:29:20;34.53;;;29.08;;
39956;SDS011;48483;44.640;7.494;2023-06-26T00:31:46;38.65;;;34.65;;
39956;SDS011;48483;44.640;7.494;2023-06-26T00:34:14;33.53;;;30.13;;
39956;SDS011;48483;44.640;7.494;2023-06-26T00:36:41;34.33;;;31.10;;
39956;SDS011;48483;44.640;7.494;2023-06-26T00:39:11;24.45;;;21.92;;
39956;SDS011;48483;44.640;7.494;2023-06-26T00:41:37;28.35;;;25.55;;
39956;SDS011;48483;44.640;7.494;2023-06-26T00:44:04;37.83;;;34.13;;
39956;SDS011;48483;44.640;7.494;2023-06-26T00:46:31;29.00;;;26.20;;
39956;SDS011;48483;44.640;7.494;2023-06-26T00:48:59;68.15;;;60.22;;
39956;SDS011;48483;44.640;7.494;2023-06-26T00:51:28;35.63;;;31.20;;
39956;SDS011;48483;44.640;7.494;2023-06-26T00:53:56;20.15;;;18.05;;
39956;SDS011;48483;44.640;7.494;2023-06-26T00:56:23;20.27;;;18.08;;
39956;SDS011;48483;44.640;7.494;2023-06-26T00:58:50;21.23;;;17.75;;
39956;SDS011;48483;44.640;7.494;2023-06-26T01:01:17;17.45;;;15.15;;
39956;SDS011;48483;44.640;7.494;2023-06-26T01:03:48;16.50;;;14.80;;
39956;SDS011;48483;44.640;7.494;2023-06-26T01:06:19;10.20;;;9.00;;
39956;SDS011;48483;44.640;7.494;2023-06-26T01:08:49;13.30;;;11.32;;
39956;SDS011;48483;44.640;7.494;2023-06-26T01:11:18;6.72;;;6.03;;
39956;SDS011;48483;44.640;7.494;2023-06-26T01:13:45;7.10;;;5.60;;
39956;SDS011;48483;44.640;7.494;2023-06-26T01:16:12;6.80;;;5.47;;
39956;SDS011;48483;44.640;7.494;2023-06-26T01:18:41;6.85;;;5.80;;
39956;SDS011;48483;44.640;7.494;2023-06-26T01:21:08;7.00;;;4.85;;
39956;SDS011;48483;44.640;7.494;2023-06-26T01:23:37;6.05;;;4.72;;
39956;SDS011;48483;44.640;7.494;2023-06-26T01:26:25;6.55;;;5.40;;
39956;SDS011;48483;44.640;7.494;2023-06-26T01:28:55;6.18;;;5.50;;
39956;SDS011;48483;44.640;7.494;2023-06-26T01:31:25;9.35;;;6.00;;
39956;SDS011;48483;44.640;7.494;2023-06-26T01:33:54;6.18;;;5.05;;
39956;SDS011;48483;44.640;7.494;2023-06-26T01:36:23;6.05;;;5.20;;
39956;SDS011;48483;44.640;7.494;2023-06-26T01:38:50;5.65;;;4.95;;
39956;SDS011;48483;44.640;7.494;2023-06-26T01:41:17;7.75;;;5.50;;
39956;SDS011;48483;44.640;7.494;2023-06-26T01:43:57;7.15;;;5.55;;
39956;SDS011;48483;44.640;7.494;2023-06-26T01:46:34;8.45;;;5.45;;
39956;SDS011;48483;44.640;7.494;2023-06-26T01:49:07;6.45;;;5.20;;
39956;SDS011;48483;44.640;7.494;2023-06-26T01:51:39;6.53;;;5.40;;
39956;SDS011;48483;44.640;7.494;2023-06-26T01:54:09;7.35;;;6.05;;
39956;SDS011;48483;44.640;7.494;2023-06-26T01:56:41;5.63;;;4.78;;
39956;SDS011;48483;44.640;7.494;2023-06-26T01:59:12;6.15;;;5.28;;
39956;SDS011;48483;44.640;7.494;2023-06-26T02:01:40;8.07;;;5.40;;
39956;SDS011;48483;44.640;7.494;2023-06-26T02:04:06;8.00;;;5.65;;
39956;SDS011;48483;44.640;7.494;2023-06-26T02:06:33;6.60;;;5.38;;
39956;SDS011;48483;44.640;7.494;2023-06-26T02:09:00;8.65;;;5.50;;
39956;SDS011;48483;44.640;7.494;2023-06-26T02:11:26;12.43;;;5.85;;
39956;SDS011;48483;44.640;7.494;2023-06-26T02:13:53;6.60;;;5.40;;
39956;SDS011;48483;44.640;7.494;2023-06-26T02:16:21;8.00;;;5.72;;
39956;SDS011;48483;44.640;7.494;2023-06-26T02:18:49;8.75;;;6.35;;
39956;SDS011;48483;44.640;7.494;2023-06-26T02:21:15;6.07;;;5.05;;
39956;SDS011;48483;44.640;7.494;2023-06-26T02:23:42;8.77;;;6.00;;
39956;SDS011;48483;44.640;7.494;2023-06-26T02:26:09;8.35;;;6.18;;
39956;SDS011;48483;44.640;7.494;2023-06-26T02:28:37;6.78;;;5.20;;
39956;SDS011;48483;44.640;7.494;2023-06-26T02:31:03;7.65;;;5.57;;
39956;SDS011;48483;44.640;7.494;2023-06-26T02:33:34;7.60;;;6.35;;
39956;SDS011;48483;44.640;7.494;2023-06-26T02:36:01;7.70;;;5.85;;
39956;SDS011;48483;44.640;7.494;2023-06-26T02:38:27;6.72;;;5.38;;
39956;SDS011;48483;44.640;7.494;2023-06-26T02:40:54;7.53;;;6.45;;
39956;SDS011;48483;44.640;7.494;2023-06-26T02:43:21;6.07;;;5.03;;
39956;SDS011;48483;44.640;7.494;2023-06-26T02:45:47;8.73;;;6.85;;
39956;SDS011;48483;44.640;7.494;2023-06-26T02:48:14;7.03;;;5.75;;
39956;SDS011;48483;44.640;7.494;2023-06-26T02:50:43;7.45;;;5.70;;
39956;SDS011;48483;44.640;7.494;2023-06-26T02:53:13;8.15;;;5.50;;
39956;SDS011;48483;44.640;7.494;2023-06-26T02:55:44;9.00;;;6.53;;
39956;SDS011;48483;44.640;7.494;2023-06-26T02:58:13;11.30;;;5.90;;
39956;SDS011;48483;44.640;7.494;2023-06-26T03:00:40;7.93;;;5.20;;
39956;SDS011;48483;44.640;7.494;2023-06-26T03:03:09;6.95;;;5.47;;
39956;SDS011;48483;44.640;7.494;2023-06-26T03:05:36;10.77;;;5.97;;
39956;SDS011;48483;44.640;7.494;2023-06-26T03:08:05;6.78;;;5.22;;
39956;SDS011;48483;44.640;7.494;2023-06-26T03:10:32;6.68;;;5.50;;
39956;SDS011;48483;44.640;7.494;2023-06-26T03:12:59;7.38;;;5.60;;
39956;SDS011;48483;44.640;7.494;2023-06-26T03:15:26;7.35;;;5.95;;
39956;SDS011;48483;44.640;7.494;2023-06-26T03:17:54;8.02;;;5.57;;
39956;SDS011;48483;44.640;7.494;2023-06-26T03:20:25;6.00;;;5.13;;
39956;SDS011;48483;44.640;7.494;2023-06-26T03:22:54;6.85;;;5.38;;
39956;SDS011;48483;44.640;7.494;2023-06-26T03:25:23;7.55;;;5.90;;
39956;SDS011;48483;44.640;7.494;2023-06-26T03:27:57;8.40;;;5.65;;
39956;SDS011;48483;44.640;7.494;2023-06-26T03:30:25;6.80;;;5.15;;
39956;SDS011;48483;44.640;7.494;2023-06-26T03:32:53;8.07;;;5.97;;
39956;SDS011;48483;44.640;7.494;2023-06-26T03:35:20;6.97;;;5.00;;
39956;SDS011;48483;44.640;7.494;2023-06-26T03:37:48;7.57;;;5.93;;
39956;SDS011;48483;44.640;7.494;2023-06-26T03:40:16;6.85;;;5.75;;
39956;SDS011;48483;44.640;7.494;2023-06-26T03:42:45;7.45;;;5.53;;
39956;SDS011;48483;44.640;7.494;2023-06-26T03:45:11;9.05;;;5.10;;
39956;SDS011;48483;44.640;7.494;2023-06-26T03:47:39;8.82;;;5.03;;
39956;SDS011;48483;44.640;7.494;2023-06-26T03:50:06;10.52;;;5.05;;
39956;SDS011;48483;44.640;7.494;2023-06-26T03:52:34;7.38;;;6.00;;
39956;SDS011;48483;44.640;7.494;2023-06-26T03:55:01;6.93;;;4.97;;
39956;SDS011;48483;44.640;7.494;2023-06-26T03:57:28;7.05;;;5.38;;
39956;SDS011;48483;44.640;7.494;2023-06-26T03:59:56;6.97;;;6.00;;
39956;SDS011;48483;44.640;7.494;2023-06-26T04:02:23;8.82;;;5.50;;
39956;SDS011;48483;44.640;7.494;2023-06-26T04:04:50;7.00;;;5.13;;
39956;SDS011;48483;44.640;7.494;2023-06-26T04:07:18;7.05;;;5.78;;
39956;SDS011;48483;44.640;7.494;2023-06-26T04:09:45;8.20;;;5.45;;
39956;SDS011;48483;44.640;7.494;2023-06-26T04:12:11;10.48;;;5.60;;
39956;SDS011;48483;44.640;7.494;2023-06-26T04:14:38;6.15;;;5.13;;
39956;SDS011;48483;44.640;7.494;2023-06-26T04:17:06;10.35;;;5.80;;
39956;SDS011;48483;44.640;7.494;2023-06-26T04:19:33;8.93;;;5.95;;
39956;SDS011;48483;44.640;7.494;2023-06-26T04:22:02;7.63;;;5.18;;
39956;SDS011;48483;44.640;7.494;2023-06-26T04:24:29;7.13;;;4.88;;
39956;SDS011;48483;44.640;7.494;2023-06-26T04:26:55;8.45;;;5.28;;
39956;SDS011;48483;44.640;7.494;2023-06-26T04:29:23;10.10;;;5.60;;
39956;SDS011;48483;44.640;7.494;2023-06-26T04:31:51;10.05;;;5.47;;
39956;SDS011;48483;44.640;7.494;2023-06-26T04:34:19;7.18;;;5.72;;
39956;SDS011;48483;44.640;7.494;2023-06-26T04:36:46;8.60;;;5.28;;
39956;SDS011;48483;44.640;7.494;2023-06-26T04:39:13;8.63;;;5.60;;
39956;SDS011;48483;44.640;7.494;2023-06-26T04:41:43;7.38;;;5.28;;
39956;SDS011;48483;44.640;7.494;2023-06-26T04:44:10;6.82;;;4.90;;
39956;SDS011;48483;44.640;7.494;2023-06-26T04:46:37;8.43;;;5.15;;
39956;SDS011;48483;44.640;7.494;2023-06-26T04:49:07;8.37;;;5.50;;
39956;SDS011;48483;44.640;7.494;2023-06-26T04:51:35;7.63;;;5.45;;
39956;SDS011;48483;44.640;7.494;2023-06-26T04:54:06;8.25;;;5.30;;
39956;SDS011;48483;44.640;7.494;2023-06-26T04:56:33;8.07;;;5.47;;
39956;SDS011;48483;44.640;7.494;2023-06-26T04:59:01;10.63;;;5.18;;
39956;SDS011;48483;44.640;7.494;2023-06-26T05:01:29;10.20;;;5.18;;
39956;SDS011;48483;44.640;7.494;2023-06-26T05:03:55;7.45;;;5.78;;
39956;SDS011;48483;44.640;7.494;2023-06-26T05:06:22;7.80;;;5.47;;
39956;SDS011;48483;44.640;7.494;2023-06-26T05:08:50;10.85;;;6.70;;
39956;SDS011;48483;44.640;7.494;2023-06-26T05:11:17;8.70;;;5.47;;
39956;SDS011;48483;44.640;7.494;2023-06-26T05:13:44;7.57;;;5.10;;
39956;SDS011;48483;44.640;7.494;2023-06-26T05:16:10;7.55;;;6.00;;
39956;SDS011;48483;44.640;7.494;2023-06-26T05:18:37;8.13;;;6.30;;
39956;SDS011;48483;44.640;7.494;2023-06-26T05:21:04;7.95;;;6.32;;
39956;SDS011;48483;44.640;7.494;2023-06-26T05:23:32;10.88;;;5.72;;
39956;SDS011;48483;44.640;7.494;2023-06-26T05:26:01;8.55;;;5.70;;
39956;SDS011;48483;44.640;7.494;2023-06-26T05:28:29;9.13;;;5.88;;
39956;SDS011;48483;44.640;7.494;2023-06-26T05:31:02;8.38;;;5.65;;
39956;SDS011;48483;44.640;7.494;2023-06-26T05:33:31;7.82;;;6.00;;
39956;SDS011;48483;44.640;7.494;2023-06-26T05:36:00;10.70;;;5.57;;
39956;SDS011;48483;44.640;7.494;2023-06-26T05:38:29;8.10;;;5.32;;
39956;SDS011;48483;44.640;7.494;2023-06-26T05:40:56;9.70;;;6.20;;
39956;SDS011;48483;44.640;7.494;2023-06-26T05:43:25;7.90;;;5.63;;
39956;SDS011;48483;44.640;7.494;2023-06-26T05:45:52;6.90;;;5.90;;
39956;SDS011;48483;44.640;7.494;2023-06-26T05:48:18;8.90;;;6.07;;
39956;SDS011;48483;44.640;7.494;2023-06-26T05:50:45;9.80;;;5.70;;
39956;SDS011;48483;44.640;7.494;2023-06-26T05:53:13;7.78;;;5.97;;
39956;SDS011;48483;44.640;7.494;2023-06-26T05:55:40;7.50;;;5.45;;
39956;SDS011;48483;44.640;7.494;2023-06-26T05:58:09;8.55;;;5.55;;
39956;SDS011;48483;44.640;7.494;2023-06-26T06:00:38;10.43;;;7.40;;
39956;SDS011;48483;44.640;7.494;2023-06-26T06:03:05;8.20;;;6.20;;
39956;SDS011;48483;44.640;7.494;2023-06-26T06:05:32;6.43;;;5.50;;
39956;SDS011;48483;44.640;7.494;2023-06-26T06:07:59;8.38;;;5.82;;
39956;SDS011;48483;44.640;7.494;2023-06-26T06:10:26;11.27;;;7.65;;
39956;SDS011;48483;44.640;7.494;2023-06-26T06:12:52;9.40;;;6.18;;
39956;SDS011;48483;44.640;7.494;2023-06-26T06:15:20;11.27;;;6.95;;
39956;SDS011;48483;44.640;7.494;2023-06-26T06:17:48;12.02;;;6.32;;
39956;SDS011;48483;44.640;7.494;2023-06-26T06:20:16;7.93;;;6.82;;
39956;SDS011;48483;44.640;7.494;2023-06-26T06:22:45;6.03;;;5.32;;
39956;SDS011;48483;44.640;7.494;2023-06-26T06:25:14;9.02;;;6.28;;
39956;SDS011;48483;44.640;7.494;2023-06-26T06:27:41;10.43;;;5.78;;
39956;SDS011;48483;44.640;7.494;2023-06-26T06:30:09;8.40;;;6.38;;
39956;SDS011;48483;44.640;7.494;2023-06-26T06:32:36;11.32;;;6.75;;
39956;SDS011;48483;44.640;7.494;2023-06-26T06:37:50;8.02;;;5.90;;
39956;SDS011;48483;44.640;7.494;2023-06-26T06:40:17;9.35;;;6.97;;
39956;SDS011;48483;44.640;7.494;2023-06-26T06:42:44;8.23;;;6.15;;
39956;SDS011;48483;44.640;7.494;2023-06-26T06:45:10;12.48;;;6.47;;
39956;SDS011;48483;44.640;7.494;2023-06-26T06:47:37;8.68;;;5.95;;
39956;SDS011;48483;44.640;7.494;2023-06-26T06:50:04;9.52;;;5.53;;
39956;SDS011;48483;44.640;7.494;2023-06-26T06:55:04;6.95;;;4.75;;
39956;SDS011;48483;44.640;7.494;2023-06-26T06:57:34;11.15;;;4.82;;
39956;SDS011;48483;44.640;7.494;2023-06-26T07:00:04;8.90;;;5.18;;
39956;SDS011;48483;44.640;7.494;2023-06-26T07:02:34;9.20;;;5.65;;
39956;SDS011;48483;44.640;7.494;2023-06-26T07:05:01;7.22;;;5.07;;
39956;SDS011;48483;44.640;7.494;2023-06-26T07:07:29;6.60;;;4.30;;
39956;SDS011;48483;44.640;7.494;2023-06-26T07:09:59;6.70;;;5.05;;
39956;SDS011;48483;44.640;7.494;2023-06-26T07:12:26;7.45;;;5.55;;
39956;SDS011;48483;44.640;7.494;2023-06-26T07:14:53;7.05;;;5.22;;
39956;SDS011;48483;44.640;7.494;2023-06-26T07:17:20;6.30;;;4.57;;
39956;SDS011;48483;44.640;7.494;2023-06-26T07:19:47;6.72;;;4.68;;
39956;SDS011;48483;44.640;7.494;2023-06-26T07:22:13;8.27;;;4.28;;
39956;SDS011;48483;44.640;7.494;2023-06-26T07:24:40;7.50;;;5.18;;
39956;SDS011;48483;44.640;7.494;2023-06-26T07:27:08;5.85;;;4.30;;
39956;SDS011;48483;44.640;7.494;2023-06-26T07:29:35;8.13;;;4.93;;
39956;SDS011;48483;44.640;7.494;2023-06-26T07:32:02;5.80;;;4.03;;
39956;SDS011;48483;44.640;7.494;2023-06-26T07:34:29;7.38;;;4.55;;
39956;SDS011;48483;44.640;7.494;2023-06-26T07:36:55;6.55;;;4.70;;
39956;SDS011;48483;44.640;7.494;2023-06-26T07:39:22;6.45;;;4.63;;
39956;SDS011;48483;44.640;7.494;2023-06-26T07:41:49;9.25;;;5.28;;
39956;SDS011;48483;44.640;7.494;2023-06-26T07:44:17;12.38;;;4.88;;
39956;SDS011;48483;44.640;7.494;2023-06-26T07:46:44;8.02;;;5.03;;
39956;SDS011;48483;44.640;7.494;2023-06-26T07:49:10;8.95;;;5.07;;
39956;SDS011;48483;44.640;7.494;2023-06-26T07:51:37;8.45;;;4.70;;
39956;SDS011;48483;44.640;7.494;2023-06-26T07:54:04;8.27;;;5.63;;
39956;SDS011;48483;44.640;7.494;2023-06-26T07:56:31;6.72;;;4.75;;
39956;SDS011;48483;44.640;7.494;2023-06-26T07:59:19;6.75;;;4.43;;
39956;SDS011;48483;44.640;7.494;2023-06-26T08:01:46;7.30;;;4.68;;
39956;SDS011;48483;44.640;7.494;2023-06-26T08:04:13;9.75;;;4.43;;
39956;SDS011;48483;44.640;7.494;2023-06-26T08:06:40;6.50;;;4.38;;
39956;SDS011;48483;44.640;7.494;2023-06-26T08:09:06;7.07;;;4.30;;
39956;SDS011;48483;44.640;7.494;2023-06-26T08:11:36;6.88;;;4.68;;
39956;SDS011;48483;44.640;7.494;2023-06-26T08:14:02;7.35;;;4.82;;
39956;SDS011;48483;44.640;7.494;2023-06-26T08:16:30;7.82;;;5.25;;
39956;SDS011;48483;44.640;7.494;2023-06-26T08:18:57;6.15;;;4.25;;
39956;SDS011;48483;44.640;7.494;2023-06-26T08:21:24;5.63;;;4.45;;
39956;SDS011;48483;44.640;7.494;2023-06-26T08:23:50;5.30;;;4.10;;
39956;SDS011;48483;44.640;7.494;2023-06-26T08:26:17;9.68;;;3.97;;
39956;SDS011;48483;44.640;7.494;2023-06-26T08:28:44;7.78;;;3.90;;
39956;SDS011;48483;44.640;7.494;2023-06-26T08:31:11;5.20;;;3.80;;
39956;SDS011;48483;44.640;7.494;2023-06-26T08:33:40;5.55;;;3.80;;
39956;SDS011;48483;44.640;7.494;2023-06-26T08:36:06;6.80;;;4.00;;
39956;SDS011;48483;44.640;7.494;2023-06-26T08:38:33;7.15;;;4.65;;
39956;SDS011;48483;44.640;7.494;2023-06-26T08:41:00;6.85;;;4.68;;
39956;SDS011;48483;44.640;7.494;2023-06-26T08:43:26;7.28;;;4.57;;
39956;SDS011;48483;44.640;7.494;2023-06-26T08:45:54;6.60;;;3.95;;
39956;SDS011;48483;44.640;7.494;2023-06-26T08:48:21;9.52;;;4.70;;
39956;SDS011;48483;44.640;7.494;2023-06-26T08:50:49;7.03;;;4.57;;
39956;SDS011;48483;44.640;7.494;2023-06-26T08:53:20;5.53;;;3.78;;
39956;SDS011;48483;44.640;7.494;2023-06-26T08:55:53;6.05;;;3.90;;
39956;SDS011;48483;44.640;7.494;2023-06-26T08:58:23;6.90;;;4.57;;
39956;SDS011;48483;44.640;7.494;2023-06-26T09:00:50;7.35;;;4.32;;
39956;SDS011;48483;44.640;7.494;2023-06-26T09:03:17;6.10;;;4.78;;
39956;SDS011;48483;44.640;7.494;2023-06-26T09:05:44;7.10;;;4.80;;
39956;SDS011;48483;44.640;7.494;2023-06-26T09:08:12;7.75;;;4.43;;
39956;SDS011;48483;44.640;7.494;2023-06-26T09:10:40;7.13;;;4.93;;
39956;SDS011;48483;44.640;7.494;2023-06-26T09:13:07;10.23;;;4.22;;
39956;SDS011;48483;44.640;7.494;2023-06-26T09:15:37;10.05;;;4.35;;
39956;SDS011;48483;44.640;7.494;2023-06-26T09:18:05;8.30;;;4.63;;
39956;SDS011;48483;44.640;7.494;2023-06-26T09:20:31;8.25;;;4.60;;
39956;SDS011;48483;44.640;7.494;2023-06-26T09:23:01;8.37;;;4.63;;
39956;SDS011;48483;44.640;7.494;2023-06-26T09:25:29;8.57;;;4.20;;
39956;SDS011;48483;44.640;7.494;2023-06-26T09:27:56;7.72;;;4.55;;
39956;SDS011;48483;44.640;7.494;2023-06-26T09:30:23;7.07;;;4.38;;
39956;SDS011;48483;44.640;7.494;2023-06-26T09:32:50;6.90;;;4.57;;
39956;SDS011;48483;44.640;7.494;2023-06-26T09:35:20;5.97;;;4.60;;
39956;SDS011;48483;44.640;7.494;2023-06-26T09:37:46;6.30;;;4.63;;
39956;SDS011;48483;44.640;7.494;2023-06-26T09:40:13;7.00;;;4.43;;
39956;SDS011;48483;44.640;7.494;2023-06-26T09:42:42;6.18;;;4.20;;
39956;SDS011;48483;44.640;7.494;2023-06-26T09:45:12;5.97;;;4.68;;
39956;SDS011;48483;44.640;7.494;2023-06-26T09:47:44;5.47;;;4.47;;
39956;SDS011;48483;44.640;7.494;2023-06-26T09:50:20;8.25;;;4.22;;
39956;SDS011;48483;44.640;7.494;2023-06-26T09:52:47;7.90;;;5.13;;
39956;SDS011;48483;44.640;7.494;2023-06-26T09:55:16;6.10;;;4.78;;
39956;SDS011;48483;44.640;7.494;2023-06-26T09:57:48;8.82;;;5.50;;
39956;SDS011;48483;44.640;7.494;2023-06-26T10:00:16;8.77;;;5.10;;
39956;SDS011;48483;44.640;7.494;2023-06-26T10:02:44;8.52;;;5.13;;
39956;SDS011;48483;44.640;7.494;2023-06-26T10:05:11;8.73;;;4.80;;
39956;SDS011;48483;44.640;7.494;2023-06-26T10:07:38;5.70;;;4.68;;
39956;SDS011;48483;44.640;7.494;2023-06-26T10:10:07;8.73;;;5.15;;
39956;SDS011;48483;44.640;7.494;2023-06-26T10:12:34;16.67;;;6.65;;
39956;SDS011;48483;44.640;7.494;2023-06-26T10:15:02;7.57;;;5.38;;
39956;SDS011;48483;44.640;7.494;2023-06-26T10:17:32;7.38;;;5.30;;
39956;SDS011;48483;44.640;7.494;2023-06-26T10:20:02;8.05;;;5.03;;
39956;SDS011;48483;44.640;7.494;2023-06-26T10:22:33;7.10;;;5.22;;
39956;SDS011;48483;44.640;7.494;2023-06-26T10:25:05;8.77;;;5.60;;
39956;SDS011;48483;44.640;7.494;2023-06-26T10:27:34;8.48;;;5.90;;
39956;SDS011;48483;44.640;7.494;2023-06-26T10:30:06;8.15;;;4.55;;
39956;SDS011;48483;44.640;7.494;2023-06-26T10:32:39;6.65;;;5.03;;
39956;SDS011;48483;44.640;7.494;2023-06-26T10:35:06;9.57;;;5.38;;
39956;SDS011;48483;44.640;7.494;2023-06-26T10:37:43;5.72;;;4.65;;
39956;SDS011;48483;44.640;7.494;2023-06-26T10:40:10;5.97;;;4.63;;
39956;SDS011;48483;44.640;7.494;2023-06-26T10:42:38;8.00;;;4.88;;
39956;SDS011;48483;44.640;7.494;2023-06-26T10:45:15;6.05;;;4.65;;
39956;SDS011;48483;44.640;7.494;2023-06-26T10:47:45;5.97;;;4.97;;
39956;SDS011;48483;44.640;7.494;2023-06-26T10:50:20;6.22;;;5.55;;
39956;SDS011;48483;44.640;7.494;2023-06-26T10:55:35;6.18;;;5.50;;
39956;SDS011;48483;44.640;7.494;2023-06-26T10:58:02;8.55;;;5.57;;
39956;SDS011;48483;44.640;7.494;2023-06-26T11:00:30;11.02;;;6.40;;
39956;SDS011;48483;44.640;7.494;2023-06-26T11:02:56;8.38;;;5.32;;
39956;SDS011;48483;44.640;7.494;2023-06-26T11:05:23;8.40;;;5.22;;
39956;SDS011;48483;44.640;7.494;2023-06-26T11:08:04;10.13;;;6.38;;
39956;SDS011;48483;44.640;7.494;2023-06-26T11:10:48;7.28;;;5.72;;
39956;SDS011;48483;44.640;7.494;2023-06-26T11:13:17;7.00;;;5.10;;
39956;SDS011;48483;44.640;7.494;2023-06-26T11:15:46;11.23;;;6.03;;
39956;SDS011;48483;44.640;7.494;2023-06-26T11:18:15;8.55;;;6.78;;
39956;SDS011;48483;44.640;7.494;2023-06-26T11:20:42;6.78;;;5.50;;
39956;SDS011;48483;44.640;7.494;2023-06-26T11:23:08;10.98;;;5.65;;
39956;SDS011;48483;44.640;7.494;2023-06-26T11:25:36;41.08;;;36.53;;
39956;SDS011;48483;44.640;7.494;2023-06-26T11:28:03;27.50;;;19.20;;
39956;SDS011;48483;44.640;7.494;2023-06-26T11:30:30;12.43;;;9.55;;
39956;SDS011;48483;44.640;7.494;2023-06-26T11:33:08;13.27;;;8.82;;
39956;SDS011;48483;44.640;7.494;2023-06-26T11:35:36;12.82;;;7.50;;
39956;SDS011;48483;44.640;7.494;2023-06-26T11:38:03;16.25;;;9.82;;
39956;SDS011;48483;44.640;7.494;2023-06-26T11:40:31;9.13;;;7.07;;
39956;SDS011;48483;44.640;7.494;2023-06-26T11:42:59;8.60;;;7.28;;
39956;SDS011;48483;44.640;7.494;2023-06-26T11:45:27;11.60;;;6.78;;
39956;SDS011;48483;44.640;7.494;2023-06-26T11:47:55;8.05;;;7.03;;
39956;SDS011;48483;44.640;7.494;2023-06-26T11:50:23;7.53;;;5.90;;
39956;SDS011;48483;44.640;7.494;2023-06-26T11:52:53;7.40;;;6.32;;
39956;SDS011;48483;44.640;7.494;2023-06-26T11:55:21;8.63;;;6.07;;
39956;SDS011;48483;44.640;7.494;2023-06-26T11:57:48;6.47;;;5.45;;
39956;SDS011;48483;44.640;7.494;2023-06-26T12:00:16;11.00;;;6.18;;
39956;SDS011;48483;44.640;7.494;2023-06-26T12:02:44;9.73;;;6.60;;
39956;SDS011;48483;44.640;7.494;2023-06-26T12:05:12;9.45;;;6.75;;
39956;SDS011;48483;44.640;7.494;2023-06-26T12:07:41;8.27;;;5.75;;
39956;SDS011;48483;44.640;7.494;2023-06-26T12:10:09;10.90;;;5.43;;
39956;SDS011;48483;44.640;7.494;2023-06-26T12:12:37;9.60;;;5.90;;
39956;SDS011;48483;44.640;7.494;2023-06-26T12:15:05;7.47;;;6.10;;
39956;SDS011;48483;44.640;7.494;2023-06-26T12:17:33;9.52;;;7.03;;
39956;SDS011;48483;44.640;7.494;2023-06-26T12:20:05;7.70;;;6.40;;
39956;SDS011;48483;44.640;7.494;2023-06-26T12:22:44;7.38;;;5.65;;
39956;SDS011;48483;44.640;7.494;2023-06-26T12:25:12;7.85;;;6.80;;
39956;SDS011;48483;44.640;7.494;2023-06-26T12:27:38;8.45;;;6.07;;
39956;SDS011;48483;44.640;7.494;2023-06-26T12:30:06;9.75;;;6.22;;
39956;SDS011;48483;44.640;7.494;2023-06-26T12:32:34;8.50;;;6.22;;
39956;SDS011;48483;44.640;7.494;2023-06-26T12:35:01;9.32;;;6.22;;
39956;SDS011;48483;44.640;7.494;2023-06-26T12:37:27;9.30;;;7.22;;
39956;SDS011;48483;44.640;7.494;2023-06-26T12:39:56;10.60;;;7.15;;
39956;SDS011;48483;44.640;7.494;2023-06-26T12:42:24;9.63;;;6.35;;
39956;SDS011;48483;44.640;7.494;2023-06-26T12:44:51;7.88;;;5.65;;
39956;SDS011;48483;44.640;7.494;2023-06-26T12:47:19;8.15;;;5.80;;
39956;SDS011;48483;44.640;7.494;2023-06-26T12:49:50;10.10;;;6.55;;
39956;SDS011;48483;44.640;7.494;2023-06-26T12:52:17;8.90;;;6.25;;
39956;SDS011;48483;44.640;7.494;2023-06-26T12:54:45;9.15;;;7.15;;
39956;SDS011;48483;44.640;7.494;2023-06-26T12:57:14;8.95;;;7.32;;
39956;SDS011;48483;44.640;7.494;2023-06-26T12:59:41;12.55;;;8.18;;
39956;SDS011;48483;44.640;7.494;2023-06-26T13:02:08;10.70;;;8.52;;
39956;SDS011;48483;44.640;7.494;2023-06-26T13:04:37;8.32;;;7.40;;
39956;SDS011;48483;44.640;7.494;2023-06-26T13:07:06;9.53;;;7.87;;
39956;SDS011;48483;44.640;7.494;2023-06-26T13:09:33;11.60;;;7.65;;
39956;SDS011;48483;44.640;7.494;2023-06-26T13:12:01;14.25;;;7.90;;
39956;SDS011;48483;44.640;7.494;2023-06-26T13:14:31;11.70;;;8.35;;
39956;SDS011;48483;44.640;7.494;2023-06-26T13:16:58;10.98;;;7.82;;
39956;SDS011;48483;44.640;7.494;2023-06-26T13:19:26;8.18;;;7.28;;
39956;SDS011;48483;44.640;7.494;2023-06-26T13:21:52;10.18;;;7.18;;
39956;SDS011;48483;44.640;7.494;2023-06-26T13:24:19;10.38;;;6.90;;
39956;SDS011;48483;44.640;7.494;2023-06-26T13:26:46;9.40;;;6.50;;
39956;SDS011;48483;44.640;7.494;2023-06-26T13:29:13;9.38;;;6.53;;
39956;SDS011;48483;44.640;7.494;2023-06-26T13:31:41;8.10;;;6.53;;
39956;SDS011;48483;44.640;7.494;2023-06-26T13:34:07;9.40;;;5.60;;
39956;SDS011;48483;44.640;7.494;2023-06-26T13:36:34;9.52;;;6.20;;
39956;SDS011;48483;44.640;7.494;2023-06-26T13:39:01;7.65;;;5.75;;
39956;SDS011;48483;44.640;7.494;2023-06-26T13:41:28;7.72;;;6.50;;
39956;SDS011;48483;44.640;7.494;2023-06-26T13:43:54;7.65;;;5.63;;
39956;SDS011;48483;44.640;7.494;2023-06-26T13:46:21;7.90;;;5.65;;
39956;SDS011;48483;44.640;7.494;2023-06-26T13:48:49;10.35;;;6.18;;
39956;SDS011;48483;44.640;7.494;2023-06-26T13:51:16;7.65;;;5.78;;
39956;SDS011;48483;44.640;7.494;2023-06-26T13:53:42;7.90;;;6.00;;
39956;SDS011;48483;44.640;7.494;2023-06-26T13:56:09;7.03;;;5.68;;
39956;SDS011;48483;44.640;7.494;2023-06-26T13:58:35;7.15;;;5.82;;
39956;SDS011;48483;44.640;7.494;2023-06-26T14:01:02;11.95;;;7.40;;
39956;SDS011;48483;44.640;7.494;2023-06-26T14:03:30;7.82;;;5.65;;
39956;SDS011;48483;44.640;7.494;2023-06-26T14:05:58;9.02;;;5.68;;
39956;SDS011;48483;44.640;7.494;2023-06-26T14:08:24;6.95;;;5.70;;
39956;SDS011;48483;44.640;7.494;2023-06-26T14:10:51;6.88;;;5.82;;
39956;SDS011;48483;44.640;7.494;2023-06-26T14:13:17;10.35;;;5.88;;
39956;SDS011;48483;44.640;7.494;2023-06-26T14:15:44;8.65;;;6.03;;
39956;SDS011;48483;44.640;7.494;2023-06-26T14:18:11;10.73;;;5.68;;
39956;SDS011;48483;44.640;7.494;2023-06-26T14:20:37;7.38;;;6.15;;
39956;SDS011;48483;44.640;7.494;2023-06-26T14:23:05;9.70;;;6.13;;
39956;SDS011;48483;44.640;7.494;2023-06-26T14:25:32;9.35;;;5.90;;
39956;SDS011;48483;44.640;7.494;2023-06-26T14:27:59;7.53;;;5.35;;
39956;SDS011;48483;44.640;7.494;2023-06-26T14:30:25;6.63;;;5.20;;
39956;SDS011;48483;44.640;7.494;2023-06-26T14:32:52;6.80;;;5.60;;
39956;SDS011;48483;44.640;7.494;2023-06-26T14:35:19;7.90;;;5.55;;
39956;SDS011;48483;44.640;7.494;2023-06-26T14:37:45;7.20;;;5.38;;
39956;SDS011;48483;44.640;7.494;2023-06-26T14:40:15;8.32;;;6.80;;
39956;SDS011;48483;44.640;7.494;2023-06-26T14:42:41;7.40;;;5.55;;
39956;SDS011;48483;44.640;7.494;2023-06-26T14:45:09;7.88;;;5.88;;
39956;SDS011;48483;44.640;7.494;2023-06-26T14:47:36;8.88;;;5.65;;
39956;SDS011;48483;44.640;7.494;2023-06-26T14:50:03;7.20;;;5.05;;
39956;SDS011;48483;44.640;7.494;2023-06-26T14:52:30;8.05;;;5.32;;
39956;SDS011;48483;44.640;7.494;2023-06-26T14:54:57;7.03;;;5.15;;
39956;SDS011;48483;44.640;7.494;2023-06-26T14:57:25;6.53;;;5.18;;